createdAt,value
2022-08-17T00:00:00.512Z,23.06
2022-08-17T00:02:27.568Z,23.10
2022-08-17T00:04:55.538Z,23.13
2022-08-17T00:07:23.430Z,23.26
2022-08-17T00:09:50.492Z,23.44
2022-08-17T00:12:43.446Z,23.50
2022-08-17T00:15:06.378Z,23.57
2022-08-17T00:17:37.453Z,23.48
2022-08-17T00:20:05.098Z,23.31
2022-08-17T00:22:46.686Z,22.98
2022-08-17T00:25:20.093Z,23.07
2022-08-17T00:27:46.915Z,23.04
2022-08-17T00:30:14.396Z,23.21
2022-08-17T00:33:23.097Z,23.22
2022-08-17T00:35:34.497Z,23.38
2022-08-17T00:38:01.177Z,23.28
2022-08-17T00:40:40.784Z,22.99
2022-08-17T00:43:20.093Z,22.70
2022-08-17T00:45:47.771Z,22.48
2022-08-17T00:48:28.932Z,22.12
2022-08-17T00:51:02.365Z,22.14
2022-08-17T00:53:31.668Z,22.66
2022-08-17T00:56:05.101Z,22.68
2022-08-17T00:58:36.633Z,22.35
2022-08-17T01:01:06.764Z,22.28
2022-08-17T01:03:35.850Z,22.54
2022-08-17T01:06:04.578Z,22.53
2022-08-17T01:08:32.959Z,22.25
2022-08-17T01:11:04.165Z,22.43
2022-08-17T01:13:43.368Z,22.34
2022-08-17T01:16:30.525Z,22.38
2022-08-17T01:19:01.187Z,22.48
2022-08-17T01:21:27.999Z,22.60
2022-08-17T01:23:55.678Z,22.65
2022-08-17T01:26:23.308Z,22.61
2022-08-17T01:28:55.084Z,22.50
2022-08-17T01:31:23.951Z,22.52
2022-08-17T01:33:51.096Z,22.40
2022-08-17T01:36:18.362Z,22.49
2022-08-17T01:38:45.328Z,22.34
2022-08-17T01:41:16.627Z,22.05
2022-08-17T01:43:52.115Z,22.03
2022-08-17T01:46:23.452Z,22.00
2022-08-17T01:48:51.319Z,22.00
2022-08-17T01:51:19.308Z,22.14
2022-08-17T01:53:52.615Z,22.31
2022-08-17T01:56:22.658Z,22.41
2022-08-17T01:58:49.411Z,22.31
2022-08-17T02:01:19.183Z,22.30
2022-08-17T02:03:53.337Z,22.18
2022-08-17T02:06:31.605Z,21.76
2022-08-17T02:09:17.040Z,21.71
2022-08-17T02:11:45.252Z,21.75
2022-08-17T02:14:13.530Z,21.82
2022-08-17T02:16:41.071Z,21.67
2022-08-17T02:19:11.314Z,21.68
2022-08-17T02:21:39.520Z,21.59
2022-08-17T02:24:11.096Z,21.39
2022-08-17T02:26:37.968Z,21.28
2022-08-17T02:29:04.944Z,21.46
2022-08-17T02:31:31.780Z,21.37
2022-08-17T02:34:03.896Z,21.38
2022-08-17T02:36:35.785Z,21.36
2022-08-17T02:39:04.665Z,21.60
2022-08-17T02:41:31.573Z,21.64
2022-08-17T02:43:58.843Z,21.74
2022-08-17T02:46:26.333Z,21.76
2022-08-17T02:48:53.028Z,21.61
2022-08-17T02:51:20.196Z,21.41
2022-08-17T02:53:47.289Z,21.46
2022-08-17T02:56:14.199Z,21.45
2022-08-17T02:58:41.071Z,21.47
2022-08-17T03:01:10.071Z,21.51
2022-08-17T03:03:37.890Z,21.54
2022-08-17T03:06:05.450Z,21.50
2022-08-17T03:08:32.296Z,21.53
2022-08-17T03:10:59.075Z,21.39
2022-08-17T03:13:27.666Z,21.44
2022-08-17T03:15:54.555Z,21.49
2022-08-17T03:18:25.264Z,21.42
2022-08-17T03:21:00.649Z,21.46
2022-08-17T03:23:29.638Z,21.57
2022-08-17T03:25:56.865Z,21.54
2022-08-17T03:28:24.903Z,21.42
2022-08-17T03:30:52.700Z,21.48
2022-08-17T03:33:19.569Z,21.41
2022-08-17T03:35:47.056Z,21.35
2022-08-17T03:38:16.008Z,21.39
2022-08-17T03:40:56.625Z,21.64
2022-08-17T03:43:30.686Z,21.73
2022-08-17T03:46:33.815Z,21.13
2022-08-17T03:49:26.194Z,21.44
2022-08-17T03:52:15.777Z,21.29
2022-08-17T03:55:02.038Z,21.33
2022-08-17T03:57:29.307Z,21.39
2022-08-17T03:59:57.342Z,21.40
2022-08-17T04:02:25.773Z,21.59
2022-08-17T04:04:53.953Z,21.57
2022-08-17T04:07:23.052Z,21.53
2022-08-17T04:09:50.798Z,21.32
2022-08-17T04:12:20.117Z,20.85
2022-08-17T04:14:53.146Z,20.64
2022-08-17T04:17:26.587Z,20.62
2022-08-17T04:19:54.489Z,21.04
2022-08-17T04:22:32.869Z,21.65
2022-08-17T04:25:09.915Z,22.20
2022-08-17T04:27:36.759Z,23.07
2022-08-17T04:30:06.037Z,23.84
2022-08-17T04:33:04.018Z,24.55
2022-08-17T04:35:23.901Z,25.00
2022-08-17T04:37:51.718Z,25.45
2022-08-17T04:40:38.080Z,26.08
2022-08-17T04:43:18.648Z,27.03
2022-08-17T04:45:57.871Z,27.44
2022-08-17T04:48:36.706Z,27.95
2022-08-17T04:51:09.926Z,28.34
2022-08-17T04:53:37.677Z,28.80
2022-08-17T04:56:05.323Z,28.94
2022-08-17T04:58:32.199Z,29.13
2022-08-17T05:00:59.020Z,28.97
2022-08-17T05:03:26.200Z,28.98
2022-08-17T05:05:53.818Z,28.93
2022-08-17T05:08:22.006Z,29.73
2022-08-17T05:10:49.217Z,30.15
2022-08-17T05:13:24.889Z,30.87
2022-08-17T05:15:56.741Z,31.51
2022-08-17T05:18:24.683Z,31.62
2022-08-17T05:20:52.485Z,31.76
2022-08-17T05:23:21.641Z,31.97
2022-08-17T05:25:51.586Z,32.05
2022-08-17T05:28:24.147Z,32.63
2022-08-17T05:30:56.935Z,32.94
2022-08-17T05:33:27.618Z,33.34
2022-08-17T05:35:56.606Z,33.54
2022-08-17T05:38:25.614Z,33.28
2022-08-17T05:40:53.765Z,33.35
2022-08-17T05:43:22.382Z,33.29
2022-08-17T05:45:56.468Z,32.93
2022-08-17T05:48:35.689Z,32.74
2022-08-17T05:51:15.634Z,32.54
2022-08-17T05:53:48.144Z,32.55
2022-08-17T05:56:34.742Z,32.33
2022-08-17T05:59:27.183Z,32.34
2022-08-17T06:02:26.713Z,32.47
2022-08-17T06:05:05.419Z,32.86
2022-08-17T06:07:46.269Z,32.71
2022-08-17T06:10:34.320Z,32.84
2022-08-17T06:13:12.922Z,32.77
2022-08-17T06:16:33.794Z,33.12
2022-08-17T06:19:21.868Z,33.32
2022-08-17T06:21:53.087Z,33.28
2022-08-17T06:24:35.458Z,34.14
2022-08-17T06:27:13.568Z,34.06
2022-08-17T06:29:58.247Z,34.15
2022-08-17T06:32:25.779Z,33.52
2022-08-17T06:34:52.985Z,33.20
2022-08-17T06:37:48.937Z,33.06
2022-08-17T06:40:45.948Z,32.96
2022-08-17T06:43:34.223Z,31.64
2022-08-17T06:46:11.554Z,31.42
2022-08-17T06:49:08.282Z,31.84
2022-08-17T06:51:40.741Z,32.26
2022-08-17T06:54:19.740Z,32.54
2022-08-17T06:56:57.503Z,32.78
2022-08-17T06:59:55.373Z,32.78
2022-08-17T07:03:01.704Z,32.64
2022-08-17T07:05:44.708Z,33.17
2022-08-17T07:08:42.843Z,33.33
2022-08-17T07:11:26.306Z,33.44
2022-08-17T07:14:18.537Z,34.03
2022-08-17T07:16:50.888Z,34.55
2022-08-17T07:19:22.690Z,35.37
2022-08-17T07:22:24.987Z,36.17
2022-08-17T07:25:05.586Z,36.72
2022-08-17T07:27:40.792Z,37.37
2022-08-17T07:30:17.880Z,37.52
2022-08-17T07:32:53.987Z,37.85
2022-08-17T07:35:40.719Z,38.36
2022-08-17T07:38:28.746Z,38.50
2022-08-17T07:41:02.316Z,38.82
2022-08-17T07:43:39.698Z,39.20
2022-08-17T07:46:24.735Z,39.40
2022-08-17T07:48:54.924Z,39.47
2022-08-17T07:51:25.362Z,39.67
2022-08-17T07:54:12.905Z,39.95
2022-08-17T07:56:47.152Z,40.14
2022-08-17T07:59:23.307Z,40.05
2022-08-17T08:01:57.521Z,40.27
2022-08-17T08:05:06.628Z,40.27
2022-08-17T08:07:42.682Z,40.10
2022-08-17T08:10:16.971Z,39.51
2022-08-17T08:12:52.779Z,39.25
2022-08-17T08:15:25.895Z,39.06
2022-08-17T08:18:01.616Z,38.98
2022-08-17T08:21:08.966Z,38.65
2022-08-17T08:24:14.525Z,38.45
2022-08-17T08:26:58.472Z,38.68
2022-08-17T08:29:51.040Z,38.63
2022-08-17T08:32:51.977Z,37.94
2022-08-17T08:35:54.062Z,37.95
2022-08-17T08:38:42.779Z,37.73
2022-08-17T08:41:27.996Z,37.55
2022-08-17T08:44:16.455Z,38.14
2022-08-17T08:46:59.986Z,38.32
2022-08-17T08:50:01.393Z,38.25
2022-08-17T08:52:21.819Z,38.96
2022-08-17T08:54:57.043Z,39.56
2022-08-17T08:57:34.561Z,39.97
2022-08-17T09:00:04.912Z,40.36
2022-08-17T09:02:37.979Z,41.03
2022-08-17T09:05:22.910Z,41.46
2022-08-17T09:08:11.283Z,41.56
2022-08-17T09:11:12.855Z,41.84
2022-08-17T09:14:01.789Z,42.00
2022-08-17T09:16:36.180Z,42.43
2022-08-17T09:19:33.439Z,41.71
2022-08-17T09:22:31.729Z,42.00
2022-08-17T09:25:13.830Z,42.09
2022-08-17T09:28:16.803Z,42.37
2022-08-17T09:30:55.653Z,42.99
2022-08-17T09:33:27.216Z,43.29
2022-08-17T09:36:10.267Z,42.53
2022-08-17T09:38:58.280Z,42.11
2022-08-17T09:41:49.132Z,42.31
2022-08-17T09:44:46.006Z,42.29
2022-08-17T09:47:45.671Z,41.22
2022-08-17T09:51:05.423Z,42.35
2022-08-17T09:53:12.473Z,42.16
2022-08-17T09:56:14.787Z,42.57
2022-08-17T09:59:16.987Z,42.29
2022-08-17T10:01:56.780Z,42.83
2022-08-17T10:04:39.853Z,42.90
2022-08-17T10:07:19.076Z,43.30
2022-08-17T10:09:56.949Z,43.35
2022-08-17T10:12:47.101Z,43.83
2022-08-17T10:15:37.489Z,43.21
2022-08-17T10:18:37.842Z,43.76
2022-08-17T10:21:30.297Z,42.72
2022-08-17T10:24:36.500Z,42.47
2022-08-17T10:27:08.549Z,42.50
2022-08-17T10:29:48.499Z,40.90
2022-08-17T10:33:00.864Z,40.81
2022-08-17T10:36:10.650Z,41.42
2022-08-17T10:39:00.441Z,42.05
2022-08-17T10:41:49.624Z,42.54
2022-08-17T10:44:45.769Z,43.18
2022-08-17T10:47:16.440Z,43.58
2022-08-17T10:49:54.239Z,42.62
2022-08-17T10:52:22.022Z,42.39
2022-08-17T10:54:51.798Z,42.99
2022-08-17T10:57:34.466Z,42.58
2022-08-17T11:00:14.952Z,43.40
2022-08-17T11:02:53.683Z,43.70
2022-08-17T11:05:29.601Z,43.92
2022-08-17T11:08:27.350Z,44.25
2022-08-17T11:11:09.654Z,43.81
2022-08-17T11:13:46.183Z,43.34
2022-08-17T11:16:50.444Z,43.38
2022-08-17T11:19:26.668Z,41.64
2022-08-17T11:22:33.573Z,42.42
2022-08-17T11:25:20.558Z,42.58
2022-08-17T11:27:54.094Z,42.82
2022-08-17T11:30:48.594Z,42.43
2022-08-17T11:33:38.238Z,42.81
2022-08-17T11:36:37.927Z,43.08
2022-08-17T11:39:32.530Z,43.56
2022-08-17T11:42:08.553Z,43.36
2022-08-17T11:44:53.400Z,42.75
2022-08-17T11:48:26.708Z,43.05
2022-08-17T11:51:47.321Z,41.64
2022-08-17T11:54:39.518Z,42.01
2022-08-17T11:57:27.924Z,42.46
2022-08-17T11:59:59.050Z,42.17
2022-08-17T12:02:32.603Z,40.94
2022-08-17T12:05:14.686Z,40.47
2022-08-17T12:07:52.621Z,41.19
2022-08-17T12:10:30.644Z,41.13
2022-08-17T12:13:06.201Z,41.86
2022-08-17T12:15:39.532Z,42.22
2022-08-17T12:18:06.421Z,41.12
2022-08-17T12:20:40.240Z,41.86
2022-08-17T12:23:09.627Z,42.36
2022-08-17T12:25:39.951Z,41.68
2022-08-17T12:28:23.279Z,42.26
2022-08-17T12:30:52.023Z,42.78
2022-08-17T12:33:27.831Z,43.03
2022-08-17T12:36:15.734Z,43.08
2022-08-17T12:39:13.697Z,43.57
2022-08-17T12:41:47.392Z,42.83
2022-08-17T12:44:17.274Z,42.83
2022-08-17T12:47:09.828Z,42.11
2022-08-17T12:49:39.578Z,42.28
2022-08-17T12:52:13.746Z,43.02
2022-08-17T12:54:52.721Z,42.83
2022-08-17T12:57:31.437Z,42.71
2022-08-17T13:00:28.954Z,43.07
2022-08-17T13:02:58.599Z,42.08
2022-08-17T13:05:30.504Z,42.76
2022-08-17T13:07:59.927Z,43.23
2022-08-17T13:10:33.016Z,43.42
2022-08-17T13:13:05.436Z,43.59
2022-08-17T13:15:44.444Z,43.16
2022-08-17T13:18:49.851Z,43.75
2022-08-17T13:21:19.893Z,43.70
2022-08-17T13:24:01.906Z,43.46
2022-08-17T13:26:40.424Z,43.79
2022-08-17T13:29:16.697Z,43.66
2022-08-17T13:31:52.450Z,44.16
2022-08-17T13:34:26.975Z,44.16
2022-08-17T13:37:25.833Z,44.13
2022-08-17T13:39:54.821Z,44.38
2022-08-17T13:42:52.296Z,43.83
2022-08-17T13:45:36.578Z,43.05
2022-08-17T13:48:32.197Z,42.58
2022-08-17T13:50:59.738Z,42.57
2022-08-17T13:53:33.535Z,42.78
2022-08-17T13:56:37.027Z,43.07
2022-08-17T13:59:02.882Z,43.20
2022-08-17T14:01:37.024Z,42.19
2022-08-17T14:04:13.789Z,42.31
2022-08-17T14:06:58.082Z,42.55
2022-08-17T14:09:32.449Z,42.76
2022-08-17T14:12:04.334Z,42.97
2022-08-17T14:14:31.410Z,43.01
2022-08-17T14:16:58.335Z,42.86
2022-08-17T14:19:26.335Z,42.61
2022-08-17T14:21:56.705Z,43.02
2022-08-17T14:24:26.812Z,43.01
2022-08-17T14:26:53.955Z,43.26
2022-08-17T14:29:23.082Z,43.39
2022-08-17T14:31:54.268Z,43.48
2022-08-17T14:34:23.132Z,43.25
2022-08-17T14:36:50.358Z,43.19
2022-08-17T14:39:18.398Z,43.37
2022-08-17T14:41:45.575Z,43.11
2022-08-17T14:44:13.193Z,43.25
2022-08-17T14:46:41.984Z,43.22
2022-08-17T14:49:11.478Z,42.82
2022-08-17T14:51:39.729Z,42.86
2022-08-17T14:54:11.867Z,42.88
2022-08-17T14:57:22.220Z,42.72
2022-08-17T14:59:46.073Z,42.40
2022-08-17T15:02:13.504Z,42.33
2022-08-17T15:04:45.339Z,42.29
2022-08-17T15:07:12.545Z,42.14
2022-08-17T15:09:39.409Z,41.75
2022-08-17T15:12:06.782Z,41.41
2022-08-17T15:14:35.604Z,41.47
2022-08-17T15:17:03.880Z,41.27
2022-08-17T15:19:30.921Z,40.92
2022-08-17T15:21:57.787Z,41.08
2022-08-17T15:24:24.980Z,40.47
2022-08-17T15:26:52.075Z,40.92
2022-08-17T15:29:18.852Z,40.89
2022-08-17T15:31:45.820Z,40.05
2022-08-17T15:34:12.574Z,40.27
2022-08-17T15:36:43.861Z,40.35
2022-08-17T15:39:19.488Z,40.30
2022-08-17T15:41:47.564Z,40.34
2022-08-17T15:44:32.350Z,40.13
2022-08-17T15:47:02.080Z,39.99
2022-08-17T15:49:28.896Z,39.84
2022-08-17T15:51:56.023Z,40.00
2022-08-17T15:54:23.551Z,39.85
2022-08-17T15:56:50.630Z,39.88
2022-08-17T15:59:17.373Z,39.74
2022-08-17T16:03:04.658Z,39.60
2022-08-17T16:04:31.745Z,39.63
2022-08-17T16:06:59.793Z,39.49
2022-08-17T16:09:27.209Z,39.40
2022-08-17T16:11:56.320Z,39.25
2022-08-17T16:14:30.285Z,39.18
2022-08-17T16:17:01.139Z,39.15
2022-08-17T16:19:27.954Z,38.85
2022-08-17T16:21:54.911Z,38.86
2022-08-17T16:24:21.697Z,38.70
2022-08-17T16:26:48.893Z,38.38
2022-08-17T16:29:16.020Z,38.47
2022-08-17T16:31:43.459Z,38.40
2022-08-17T16:34:16.813Z,38.27
2022-08-17T16:36:55.636Z,38.26
2022-08-17T16:39:25.729Z,38.10
2022-08-17T16:41:52.710Z,38.11
2022-08-17T16:44:21.451Z,37.97
2022-08-17T16:46:49.073Z,37.85
2022-08-17T16:49:35.332Z,37.64
2022-08-17T16:52:04.461Z,37.65
2022-08-17T16:54:31.259Z,37.55
2022-08-17T16:56:58.176Z,37.42
2022-08-17T16:59:30.166Z,37.29
2022-08-17T17:02:05.014Z,37.33
2022-08-17T17:04:35.171Z,37.18
2022-08-17T17:07:40.025Z,37.12
2022-08-17T17:10:15.638Z,37.08
2022-08-17T17:13:02.899Z,36.92
2022-08-17T17:16:06.474Z,36.86
2022-08-17T17:18:53.270Z,36.71
2022-08-17T17:21:27.527Z,36.55
2022-08-17T17:24:04.038Z,36.32
2022-08-17T17:27:18.066Z,36.28
2022-08-17T17:29:59.005Z,36.25
2022-08-17T17:32:38.197Z,36.02
2022-08-17T17:35:25.433Z,36.08
2022-08-17T17:37:54.228Z,35.82
2022-08-17T17:40:29.371Z,35.60
2022-08-17T17:43:14.229Z,35.28
2022-08-17T17:45:58.636Z,35.06
2022-08-17T17:48:45.300Z,35.06
2022-08-17T17:52:06.681Z,34.78
2022-08-17T17:54:48.200Z,34.62
2022-08-17T17:57:33.025Z,34.30
2022-08-17T18:00:05.396Z,33.92
2022-08-17T18:02:54.947Z,33.65
2022-08-17T18:05:36.913Z,33.43
2022-08-17T18:08:33.830Z,33.10
2022-08-17T18:11:34.906Z,33.14
2022-08-17T18:14:14.509Z,32.79
2022-08-17T18:16:42.897Z,32.66
2022-08-17T18:19:15.859Z,32.55
2022-08-17T18:21:47.428Z,32.31
2022-08-17T18:24:14.472Z,32.31
2022-08-17T18:26:46.109Z,32.24
2022-08-17T18:29:31.725Z,32.33
2022-08-17T18:32:32.660Z,32.42
2022-08-17T18:35:27.852Z,32.21
2022-08-17T18:38:28.826Z,32.21
2022-08-17T18:41:02.396Z,32.18
2022-08-17T18:43:52.881Z,32.14
2022-08-17T18:46:37.757Z,32.24
2022-08-17T18:49:28.483Z,31.97
2022-08-17T18:52:10.952Z,31.60
2022-08-17T18:54:38.712Z,31.53
2022-08-17T18:57:07.852Z,31.30
2022-08-17T18:59:48.441Z,31.07
2022-08-17T19:02:29.708Z,31.05
2022-08-17T19:05:04.790Z,30.99
2022-08-17T19:07:42.251Z,30.89
2022-08-17T19:10:26.120Z,30.79
2022-08-17T19:13:00.890Z,31.03
2022-08-17T19:15:38.099Z,30.71
2022-08-17T19:18:15.832Z,30.80
2022-08-17T19:21:00.857Z,30.63
2022-08-17T19:23:36.768Z,30.56
2022-08-17T19:26:50.318Z,30.42
2022-08-17T19:29:02.491Z,30.29
2022-08-17T19:31:31.403Z,30.28
2022-08-17T19:34:00.772Z,30.28
2022-08-17T19:36:40.875Z,30.35
2022-08-17T19:39:22.709Z,30.19
2022-08-17T19:42:01.363Z,29.86
2022-08-17T19:45:16.322Z,29.96
2022-08-17T19:47:55.330Z,29.98
2022-08-17T19:50:41.392Z,29.94
2022-08-17T19:54:01.750Z,29.92
2022-08-17T19:56:31.892Z,29.88
2022-08-17T19:59:26.534Z,29.60
2022-08-17T20:02:01.421Z,29.17
2022-08-17T20:04:41.463Z,29.37
2022-08-17T20:07:20.213Z,29.33
2022-08-17T20:09:53.024Z,29.41
2022-08-17T20:12:28.434Z,28.82
2022-08-17T20:15:00.464Z,29.05
2022-08-17T20:17:34.579Z,29.17
2022-08-17T20:20:38.901Z,29.03
2022-08-17T20:23:32.938Z,28.27
2022-08-17T20:26:10.229Z,27.61
2022-08-17T20:28:39.331Z,27.45
2022-08-17T20:31:45.790Z,27.59
2022-08-17T20:34:33.772Z,27.59
2022-08-17T20:37:04.403Z,27.59
2022-08-17T20:39:39.547Z,27.51
2022-08-17T20:42:30.608Z,27.54
2022-08-17T20:45:21.625Z,27.55
2022-08-17T20:48:18.720Z,27.39
2022-08-17T20:50:45.539Z,27.64
2022-08-17T20:53:55.540Z,27.79
2022-08-17T20:56:44.417Z,27.60
2022-08-17T20:59:25.691Z,27.34
2022-08-17T21:02:19.348Z,27.48
2022-08-17T21:04:56.488Z,27.70
2022-08-17T21:07:42.761Z,27.44
2022-08-17T21:10:23.712Z,27.10
2022-08-17T21:13:08.461Z,27.04
2022-08-17T21:16:13.211Z,26.88
2022-08-17T21:19:23.847Z,26.45
2022-08-17T21:22:26.148Z,25.94
2022-08-17T21:25:11.539Z,26.38
2022-08-17T21:28:12.707Z,26.42
2022-08-17T21:30:39.517Z,26.45
2022-08-17T21:33:12.339Z,26.43
2022-08-17T21:35:54.044Z,26.49
2022-08-17T21:38:42.788Z,26.43
2022-08-17T21:41:28.662Z,26.08
2022-08-17T21:44:05.429Z,26.21
2022-08-17T21:46:37.765Z,26.08
2022-08-17T21:49:13.475Z,25.90
2022-08-17T21:51:50.563Z,25.86
2022-08-17T21:54:38.932Z,25.99
2022-08-17T21:57:15.040Z,26.01
2022-08-17T21:59:43.818Z,26.02
2022-08-17T22:02:24.082Z,26.18
2022-08-17T22:05:06.880Z,25.92
2022-08-17T22:07:38.867Z,25.61
2022-08-17T22:10:26.312Z,25.55
2022-08-17T22:13:06.214Z,25.44
2022-08-17T22:15:49.404Z,25.51
2022-08-17T22:18:27.787Z,25.22
2022-08-17T22:20:59.429Z,25.36
2022-08-17T22:23:57.253Z,25.43
2022-08-17T22:26:28.288Z,25.46
2022-08-17T22:28:59.091Z,25.46
2022-08-17T22:31:32.878Z,25.35
2022-08-17T22:34:02.396Z,24.84
2022-08-17T22:36:30.073Z,24.86
2022-08-17T22:39:09.700Z,24.72
2022-08-17T22:41:48.528Z,24.97
2022-08-17T22:44:24.438Z,25.02
2022-08-17T22:47:03.525Z,24.97
2022-08-17T22:49:53.557Z,24.99
2022-08-17T22:52:36.182Z,24.99
2022-08-17T22:55:32.645Z,24.69
2022-08-17T22:58:19.146Z,24.89
2022-08-17T23:00:48.942Z,24.53
2022-08-17T23:03:25.045Z,24.78
2022-08-17T23:06:10.569Z,24.99
2022-08-17T23:08:58.158Z,24.74
2022-08-17T23:11:36.646Z,24.65
2022-08-17T23:14:15.931Z,24.58
2022-08-17T23:16:42.887Z,24.47
2022-08-17T23:19:15.469Z,24.43
2022-08-17T23:21:46.551Z,24.52
2022-08-17T23:24:26.175Z,24.14
2022-08-17T23:26:54.678Z,24.28
2022-08-17T23:29:21.645Z,24.40
2022-08-17T23:31:50.646Z,24.59
2022-08-17T23:34:18.694Z,24.56
2022-08-17T23:36:52.271Z,24.07
2022-08-17T23:39:27.385Z,24.17
2022-08-17T23:41:57.251Z,24.32
2022-08-17T23:44:24.017Z,24.22
2022-08-17T23:46:52.101Z,24.00
2022-08-17T23:49:19.276Z,24.20
2022-08-17T23:51:48.533Z,24.16
2022-08-17T23:54:21.115Z,24.10
2022-08-17T23:56:47.946Z,24.01
2022-08-17T23:59:16.499Z,23.88
